createdAt,value
2022-10-28T00:00:11.984Z,99437.94
2022-10-28T00:02:41.120Z,99434.59
2022-10-28T00:05:11.023Z,99437.72
2022-10-28T00:07:40.083Z,99439.78
2022-10-28T00:10:10.525Z,99438.16
2022-10-28T00:12:40.961Z,99434.59
2022-10-28T00:15:10.975Z,99431.66
2022-10-28T00:17:40.001Z,99430.13
2022-10-28T00:20:10.629Z,99433.13
2022-10-28T00:22:39.787Z,99426.19
2022-10-28T00:25:09.893Z,99422.81
2022-10-28T00:27:40.300Z,99422.91
2022-10-28T00:30:10.527Z,99424.28
2022-10-28T00:32:39.548Z,99419.94
2022-10-28T00:35:09.364Z,99435.78
2022-10-28T00:37:38.419Z,99426.72
2022-10-28T00:40:08.544Z,99427.44
2022-10-28T00:42:37.611Z,99423.78
2022-10-28T00:45:10.884Z,99430.56
2022-10-28T00:47:52.277Z,99428.72
2022-10-28T00:50:40.925Z,99432.19
2022-10-28T00:53:15.421Z,99435.28
2022-10-28T00:55:46.088Z,99427.19
2022-10-28T00:58:16.040Z,99433.09
2022-10-28T01:00:46.532Z,99426.44
2022-10-28T01:03:16.285Z,99416.09
2022-10-28T01:05:52.173Z,99424.50
2022-10-28T01:08:21.484Z,99422.94
2022-10-28T01:11:41.620Z,99418.09
2022-10-28T01:14:24.193Z,99421.31
2022-10-28T01:17:14.341Z,99419.53
2022-10-28T01:20:26.086Z,99420.78
2022-10-28T01:23:06.301Z,99417.22
2022-10-28T01:26:08.899Z,99421.81
2022-10-28T01:29:23.690Z,99429.88
2022-10-28T01:31:58.577Z,99424.72
2022-10-28T01:34:33.653Z,99425.00
2022-10-28T01:37:10.075Z,99417.19
2022-10-28T01:39:48.044Z,99421.63
2022-10-28T01:42:26.612Z,99414.66
2022-10-28T01:45:08.852Z,99408.84
2022-10-28T01:47:47.462Z,99403.25
2022-10-28T01:50:23.326Z,99410.59
2022-10-28T01:52:56.912Z,99404.72
2022-10-28T01:55:31.793Z,99409.75
2022-10-28T01:58:02.408Z,99403.41
2022-10-28T02:00:33.398Z,99403.06
2022-10-28T02:03:05.057Z,99396.41
2022-10-28T02:05:45.968Z,99395.41
2022-10-28T02:08:44.166Z,99395.91
2022-10-28T02:11:45.682Z,99398.03
2022-10-28T02:14:34.035Z,99397.53
2022-10-28T02:17:18.732Z,99397.34
2022-10-28T02:19:55.189Z,99399.75
2022-10-28T02:22:31.452Z,99386.03
2022-10-28T02:25:09.947Z,99386.84
2022-10-28T02:27:47.676Z,99395.53
2022-10-28T02:30:24.246Z,99386.78
2022-10-28T02:32:59.097Z,99389.84
2022-10-28T02:35:34.544Z,99396.03
2022-10-28T02:38:10.931Z,99393.06
2022-10-28T02:40:43.016Z,99391.53
2022-10-28T02:43:16.029Z,99388.16
2022-10-28T02:45:51.175Z,99391.38
2022-10-28T02:48:26.930Z,99383.97
2022-10-28T02:51:06.863Z,99400.72
2022-10-28T02:53:45.801Z,99391.00
2022-10-28T02:56:17.578Z,99393.34
2022-10-28T02:58:47.064Z,99394.88
2022-10-28T03:01:16.250Z,99395.44
2022-10-28T03:03:45.521Z,99395.34
2022-10-28T03:06:16.301Z,99389.19
2022-10-28T03:08:45.513Z,99386.59
2022-10-28T03:11:14.568Z,99390.38
2022-10-28T03:13:43.547Z,99391.00
2022-10-28T03:16:12.609Z,99390.91
2022-10-28T03:18:41.658Z,99386.84
2022-10-28T03:21:10.736Z,99392.44
2022-10-28T03:23:41.139Z,99393.50
2022-10-28T03:26:10.190Z,99384.69
2022-10-28T03:28:39.216Z,99386.13
2022-10-28T03:31:08.335Z,99390.66
2022-10-28T03:33:37.377Z,99372.09
2022-10-28T03:36:07.050Z,99385.44
2022-10-28T03:38:36.132Z,99382.22
2022-10-28T03:41:06.976Z,99372.50
2022-10-28T03:43:36.001Z,99373.66
2022-10-28T03:46:05.098Z,99379.69
2022-10-28T03:48:34.248Z,99370.16
2022-10-28T03:51:03.324Z,99367.00
2022-10-28T03:53:32.543Z,99371.84
2022-10-28T03:56:02.835Z,99368.53
2022-10-28T03:58:36.108Z,99370.25
2022-10-28T04:01:08.026Z,99380.91
2022-10-28T04:03:37.140Z,99373.38
2022-10-28T04:06:06.845Z,99382.94
2022-10-28T04:08:35.980Z,99379.13
2022-10-28T04:11:05.085Z,99388.97
2022-10-28T04:13:36.092Z,99380.13
2022-10-28T04:16:06.149Z,99381.88
2022-10-28T04:18:35.821Z,99385.09
2022-10-28T04:21:05.875Z,99371.44
2022-10-28T04:23:34.976Z,99368.34
2022-10-28T04:26:04.104Z,99374.13
2022-10-28T04:28:33.164Z,99372.50
2022-10-28T04:31:03.796Z,99375.66
2022-10-28T04:33:32.863Z,99375.75
2022-10-28T04:39:04.858Z,99380.13
2022-10-28T04:41:33.939Z,99376.75
2022-10-28T04:44:03.084Z,99376.56
2022-10-28T04:46:33.649Z,99370.88
2022-10-28T04:49:04.124Z,99369.97
2022-10-28T04:51:33.282Z,99376.72
2022-10-28T04:54:02.562Z,99376.91
2022-10-28T04:56:33.357Z,99373.94
2022-10-28T04:59:02.708Z,99378.53
2022-10-28T05:01:33.413Z,99374.66
2022-10-28T05:04:02.746Z,99370.44
2022-10-28T05:06:31.985Z,99367.81
2022-10-28T05:09:01.110Z,99368.28
2022-10-28T05:11:30.320Z,99354.69
2022-10-28T05:13:59.714Z,99355.03
2022-10-28T05:16:30.119Z,99354.22
2022-10-28T05:19:00.968Z,99363.69
2022-10-28T05:21:30.177Z,99356.47
2022-10-28T05:23:59.240Z,99354.84
2022-10-28T05:26:28.388Z,99357.03
2022-10-28T05:28:57.527Z,99362.59
2022-10-28T05:31:26.615Z,99359.38
2022-10-28T05:33:55.860Z,99362.59
2022-10-28T05:36:26.320Z,99358.66
2022-10-28T05:38:55.388Z,99353.78
2022-10-28T05:41:24.415Z,99361.50
2022-10-28T05:43:53.455Z,99352.88
2022-10-28T05:46:23.089Z,99349.72
2022-10-28T05:48:52.244Z,99347.41
2022-10-28T05:51:21.320Z,99350.72
2022-10-28T05:53:51.979Z,99354.78
2022-10-28T05:56:21.117Z,99360.16
2022-10-28T06:01:19.616Z,99365.03
2022-10-28T06:03:48.760Z,99374.41
2022-10-28T06:06:18.017Z,99369.50
2022-10-28T06:08:47.169Z,99377.97
2022-10-28T06:11:16.068Z,99381.56
2022-10-28T06:13:45.108Z,99365.97
2022-10-28T06:16:14.356Z,99364.72
2022-10-28T06:18:43.424Z,99368.63
2022-10-28T06:21:13.099Z,99378.84
2022-10-28T06:23:42.139Z,99375.50
2022-10-28T06:26:11.272Z,99381.88
2022-10-28T06:28:41.813Z,99384.59
2022-10-28T06:31:10.923Z,99390.91
2022-10-28T06:33:40.056Z,99395.25
2022-10-28T06:36:09.824Z,99389.13
2022-10-28T06:38:39.041Z,99390.16
2022-10-28T06:41:08.213Z,99395.88
2022-10-28T06:43:37.341Z,99394.47
2022-10-28T06:46:07.872Z,99393.94
2022-10-28T06:48:38.467Z,99400.13
2022-10-28T06:51:08.709Z,99405.41
2022-10-28T06:53:37.840Z,99407.09
2022-10-28T06:56:08.096Z,99408.34
2022-10-28T06:58:37.194Z,99413.53
2022-10-28T07:01:08.347Z,99409.75
2022-10-28T07:03:37.525Z,99419.34
2022-10-28T07:06:08.229Z,99412.00
2022-10-28T07:08:37.572Z,99420.28
2022-10-28T07:11:07.586Z,99411.91
2022-10-28T07:13:36.802Z,99422.28
2022-10-28T07:16:08.930Z,99424.78
2022-10-28T07:18:37.946Z,99429.81
2022-10-28T07:21:07.287Z,99430.00
2022-10-28T07:23:36.317Z,99417.28
2022-10-28T07:26:05.650Z,99419.06
2022-10-28T07:28:34.707Z,99413.69
2022-10-28T07:31:04.471Z,99409.81
2022-10-28T07:33:35.077Z,99411.56
2022-10-28T07:36:05.426Z,99409.75
2022-10-28T07:38:35.486Z,99406.66
2022-10-28T07:41:08.051Z,99409.16
2022-10-28T07:43:38.513Z,99403.13
2022-10-28T07:46:09.007Z,99412.84
2022-10-28T07:48:39.803Z,99411.31
2022-10-28T07:51:11.976Z,99416.94
2022-10-28T07:53:41.811Z,99412.13
2022-10-28T07:56:14.374Z,99406.50
2022-10-28T07:58:44.811Z,99417.03
2022-10-28T08:01:16.964Z,99417.41
2022-10-28T08:03:48.593Z,99424.22
2022-10-28T08:06:20.158Z,99429.81
2022-10-28T08:08:53.946Z,99430.16
2022-10-28T08:11:24.004Z,99424.09
2022-10-28T08:13:55.235Z,99421.63
2022-10-28T08:16:24.710Z,99428.75
2022-10-28T08:18:55.074Z,99419.09
2022-10-28T08:21:27.198Z,99422.22
2022-10-28T08:23:56.590Z,99420.53
2022-10-28T08:26:25.837Z,99425.28
2022-10-28T08:28:54.850Z,99422.41
2022-10-28T08:31:23.904Z,99419.38
2022-10-28T08:33:54.387Z,99416.13
2022-10-28T08:36:23.500Z,99411.09
2022-10-28T08:38:52.654Z,99414.47
2022-10-28T08:41:32.502Z,99413.84
2022-10-28T08:44:32.462Z,99414.41
2022-10-28T08:47:17.334Z,99414.88
2022-10-28T08:49:52.798Z,99408.25
2022-10-28T08:52:32.392Z,99410.53
2022-10-28T08:55:06.186Z,99411.16
2022-10-28T08:57:41.907Z,99408.41
2022-10-28T09:00:22.528Z,99418.13
2022-10-28T09:03:17.986Z,99415.09
2022-10-28T09:05:52.257Z,99405.84
2022-10-28T09:08:24.835Z,99412.31
2022-10-28T09:11:07.950Z,99412.47
2022-10-28T09:13:57.012Z,99408.72
2022-10-28T09:16:39.559Z,99401.28
2022-10-28T09:19:26.059Z,99409.94
2022-10-28T09:22:15.285Z,99394.72
2022-10-28T09:24:54.068Z,99403.84
2022-10-28T09:27:57.370Z,99405.69
2022-10-28T09:30:49.103Z,99404.50
2022-10-28T09:33:51.221Z,99417.25
2022-10-28T09:36:29.744Z,99422.78
2022-10-28T09:39:02.960Z,99418.53
2022-10-28T09:41:38.311Z,99421.75
2022-10-28T09:44:16.897Z,99426.19
2022-10-28T09:46:49.818Z,99424.00
2022-10-28T09:49:26.116Z,99411.63
2022-10-28T09:52:02.841Z,99414.66
2022-10-28T09:54:37.946Z,99412.44
2022-10-28T09:57:07.383Z,99411.00
2022-10-28T09:59:36.982Z,99406.66
2022-10-28T10:02:06.358Z,99410.41
2022-10-28T10:04:36.070Z,99419.22
2022-10-28T10:07:10.545Z,99409.50
2022-10-28T10:09:41.761Z,99407.91
2022-10-28T10:12:13.636Z,99408.47
2022-10-28T10:14:47.743Z,99398.19
2022-10-28T10:17:21.005Z,99407.72
2022-10-28T10:20:05.564Z,99399.72
2022-10-28T10:22:36.864Z,99401.19
2022-10-28T10:25:26.722Z,99402.53
2022-10-28T10:28:00.285Z,99386.22
2022-10-28T10:30:34.886Z,99385.06
2022-10-28T10:33:04.938Z,99383.63
2022-10-28T10:35:36.437Z,99382.75
2022-10-28T10:38:07.983Z,99387.69
2022-10-28T10:40:49.282Z,99388.03
2022-10-28T10:43:31.698Z,99384.63
2022-10-28T10:46:04.922Z,99379.66
2022-10-28T10:48:36.618Z,99368.03
2022-10-28T10:51:13.257Z,99368.59
2022-10-28T10:53:42.551Z,99366.56
2022-10-28T10:56:15.797Z,99365.41
2022-10-28T10:58:52.654Z,99367.59
2022-10-28T11:01:25.700Z,99364.34
2022-10-28T11:03:59.398Z,99367.09
2022-10-28T11:06:31.667Z,99367.31
2022-10-28T11:09:03.845Z,99362.63
2022-10-28T11:11:37.416Z,99358.25
2022-10-28T11:14:19.307Z,99365.78
2022-10-28T11:16:50.406Z,99358.31
2022-10-28T11:19:24.878Z,99356.38
2022-10-28T11:22:25.321Z,99349.47
2022-10-28T11:25:36.102Z,99351.72
2022-10-28T11:28:31.164Z,99341.03
2022-10-28T11:31:16.702Z,99341.28
2022-10-28T11:33:56.776Z,99344.66
2022-10-28T11:36:33.906Z,99342.09
2022-10-28T11:39:21.190Z,99343.38
2022-10-28T11:42:09.548Z,99346.63
2022-10-28T11:44:52.484Z,99339.84
2022-10-28T11:47:41.699Z,99332.88
2022-10-28T11:50:25.171Z,99325.94
2022-10-28T11:53:22.342Z,99329.31
2022-10-28T11:55:59.831Z,99334.91
2022-10-28T11:58:42.271Z,99332.22
2022-10-28T12:01:27.879Z,99326.34
2022-10-28T12:04:24.308Z,99324.44
2022-10-28T12:07:09.963Z,99321.63
2022-10-28T12:09:54.512Z,99319.09
2022-10-28T12:12:32.748Z,99314.66
2022-10-28T12:15:19.479Z,99315.13
2022-10-28T12:17:59.124Z,99305.22
2022-10-28T12:23:26.209Z,99295.63
2022-10-28T12:25:59.300Z,99300.69
2022-10-28T12:28:34.527Z,99285.09
2022-10-28T12:31:04.966Z,99285.09
2022-10-28T12:33:43.974Z,99287.63
2022-10-28T12:36:33.113Z,99288.91
2022-10-28T12:39:08.006Z,99297.78
2022-10-28T12:41:58.161Z,99288.94
2022-10-28T12:44:29.548Z,99294.84
2022-10-28T12:47:13.181Z,99293.41
2022-10-28T12:49:58.633Z,99290.69
2022-10-28T12:52:38.082Z,99269.59
2022-10-28T12:55:22.378Z,99264.19
2022-10-28T12:58:00.101Z,99261.28
2022-10-28T13:00:33.686Z,99269.19
2022-10-28T13:03:07.662Z,99273.59
2022-10-28T13:05:44.329Z,99274.75
2022-10-28T13:08:44.478Z,99283.72
2022-10-28T13:12:03.891Z,99270.63
2022-10-28T13:17:56.322Z,99272.13
2022-10-28T13:20:40.361Z,99280.16
2022-10-28T13:23:24.375Z,99280.16
2022-10-28T13:26:10.614Z,99273.16
2022-10-28T13:28:47.522Z,99279.66
2022-10-28T13:31:17.426Z,99273.28
2022-10-28T13:33:55.534Z,99275.09
2022-10-28T13:36:29.569Z,99275.59
2022-10-28T13:39:03.678Z,99279.81
2022-10-28T13:41:38.106Z,99278.53
2022-10-28T13:44:27.649Z,99278.72
2022-10-28T13:47:26.904Z,99282.06
2022-10-28T13:50:37.327Z,99289.41
2022-10-28T13:53:55.401Z,99286.66
2022-10-28T13:56:47.034Z,99275.84
2022-10-28T13:59:32.011Z,99294.78
2022-10-28T14:02:40.007Z,99299.47
2022-10-28T14:05:11.681Z,99297.25
2022-10-28T14:07:53.011Z,99288.56
2022-10-28T14:10:26.660Z,99289.00
2022-10-28T14:13:01.074Z,99296.22
2022-10-28T14:15:32.613Z,99294.84
2022-10-28T14:18:22.450Z,99298.00
2022-10-28T14:21:00.903Z,99291.31
2022-10-28T14:24:17.061Z,99298.63
2022-10-28T14:27:32.556Z,99293.44
2022-10-28T14:30:23.903Z,99296.88
2022-10-28T14:33:31.631Z,99298.88
2022-10-28T14:36:30.362Z,99301.59
2022-10-28T14:39:25.248Z,99297.84
2022-10-28T14:42:18.810Z,99287.13
2022-10-28T14:45:15.898Z,99286.75
2022-10-28T14:48:13.384Z,99281.56
2022-10-28T14:50:46.994Z,99273.56
2022-10-28T14:53:25.113Z,99280.00
2022-10-28T14:56:02.193Z,99273.31
2022-10-28T14:58:38.003Z,99268.28
2022-10-28T15:01:22.919Z,99265.09
2022-10-28T15:03:58.126Z,99260.97
2022-10-28T15:06:36.332Z,99253.06
2022-10-28T15:09:19.482Z,99250.56
2022-10-28T15:11:55.962Z,99242.53
2022-10-28T15:14:30.364Z,99236.91
2022-10-28T15:17:04.031Z,99243.38
2022-10-28T15:19:37.232Z,99246.16
2022-10-28T15:22:14.011Z,99239.19
2022-10-28T15:24:46.317Z,99248.78
2022-10-28T15:27:16.913Z,99239.22
2022-10-28T15:29:45.985Z,99244.38
2022-10-28T15:32:29.505Z,99244.69
2022-10-28T15:35:00.676Z,99244.53
2022-10-28T15:37:31.970Z,99251.84
2022-10-28T15:40:22.734Z,99246.00
2022-10-28T15:42:58.318Z,99253.31
2022-10-28T15:45:31.033Z,99252.25
2022-10-28T15:48:03.715Z,99262.66
2022-10-28T15:50:36.569Z,99258.44
2022-10-28T15:53:37.825Z,99260.25
2022-10-28T15:56:22.320Z,99261.69
2022-10-28T15:59:09.058Z,99257.41
2022-10-28T16:01:40.176Z,99261.22
2022-10-28T16:04:43.831Z,99264.66
2022-10-28T16:07:14.301Z,99260.19
2022-10-28T16:09:48.078Z,99265.41
2022-10-28T16:12:20.681Z,99265.03
2022-10-28T16:14:54.821Z,99265.31
2022-10-28T16:17:27.644Z,99273.91
2022-10-28T16:20:00.506Z,99273.69
2022-10-28T16:22:32.516Z,99263.97
2022-10-28T16:25:01.518Z,99277.03
2022-10-28T16:27:33.832Z,99277.91
2022-10-28T16:30:02.836Z,99275.72
2022-10-28T16:32:38.726Z,99279.72
2022-10-28T16:35:16.656Z,99280.31
2022-10-28T16:37:50.711Z,99282.09
2022-10-28T16:40:50.880Z,99284.53
2022-10-28T16:43:17.540Z,99283.50
2022-10-28T16:45:47.015Z,99285.28
2022-10-28T16:48:17.697Z,99294.59
2022-10-28T16:50:52.481Z,99294.25
2022-10-28T16:53:23.433Z,99300.03
2022-10-28T16:55:54.211Z,99288.41
2022-10-28T16:58:26.129Z,99292.59
2022-10-28T17:00:56.821Z,99297.19
2022-10-28T17:03:25.956Z,99295.59
2022-10-28T17:05:54.990Z,99291.75
2022-10-28T17:08:48.875Z,99293.00
2022-10-28T17:11:16.400Z,99298.38
2022-10-28T17:13:45.538Z,99296.00
2022-10-28T17:16:14.571Z,99305.06
2022-10-28T17:18:44.285Z,99303.44
2022-10-28T17:21:13.299Z,99309.22
2022-10-28T17:23:43.730Z,99305.91
2022-10-28T17:26:12.850Z,99308.78
2022-10-28T17:28:41.969Z,99303.56
2022-10-28T17:31:11.570Z,99309.34
2022-10-28T17:33:40.655Z,99311.03
2022-10-28T17:36:11.122Z,99312.66
2022-10-28T17:38:41.234Z,99314.28
2022-10-28T17:41:12.480Z,99320.00
2022-10-28T17:43:41.589Z,99316.81
2022-10-28T17:46:11.361Z,99323.66
2022-10-28T17:48:40.865Z,99328.88
2022-10-28T17:51:10.071Z,99324.16
2022-10-28T17:53:39.158Z,99330.22
2022-10-28T17:56:09.715Z,99323.38
2022-10-28T17:58:40.406Z,99329.88
2022-10-28T18:01:11.808Z,99325.03
2022-10-28T18:03:41.026Z,99324.19
2022-10-28T18:06:13.205Z,99320.22
2022-10-28T18:08:44.375Z,99321.03
2022-10-28T18:11:17.122Z,99321.91
2022-10-28T18:13:51.553Z,99322.69
2022-10-28T18:16:24.331Z,99315.44
2022-10-28T18:18:54.181Z,99325.97
2022-10-28T18:21:24.734Z,99325.13
2022-10-28T18:23:54.486Z,99320.34
2022-10-28T18:26:23.576Z,99314.28
2022-10-28T18:28:54.011Z,99314.69
2022-10-28T18:31:23.486Z,99304.22
2022-10-28T18:33:52.889Z,99303.41
2022-10-28T18:36:24.499Z,99307.44
2022-10-28T18:38:54.026Z,99310.66
2022-10-28T18:41:25.858Z,99306.63
2022-10-28T18:43:57.432Z,99305.03
2022-10-28T18:46:29.398Z,99313.09
2022-10-28T18:51:33.350Z,99305.03
2022-10-28T18:54:02.919Z,99298.59
2022-10-28T18:56:34.230Z,99297.41
2022-10-28T18:59:06.311Z,99296.19
2022-10-28T19:01:36.367Z,99303.41
2022-10-28T19:04:06.352Z,99308.66
2022-10-28T19:06:35.537Z,99305.00
2022-10-28T19:09:05.895Z,99304.16
2022-10-28T19:11:36.090Z,99301.38
2022-10-28T19:14:10.104Z,99300.94
2022-10-28T19:16:39.513Z,99302.19
2022-10-28T19:19:08.778Z,99304.19
2022-10-28T19:21:38.022Z,99309.81
2022-10-28T19:24:09.184Z,99305.38
2022-10-28T19:26:39.451Z,99304.19
2022-10-28T19:29:14.232Z,99317.03
2022-10-28T19:31:43.582Z,99311.78
2022-10-28T19:34:14.348Z,99313.78
2022-10-28T19:36:43.511Z,99309.34
2022-10-28T19:39:13.277Z,99319.41
2022-10-28T19:41:43.522Z,99317.00
2022-10-28T19:44:15.415Z,99308.94
2022-10-28T19:46:44.475Z,99315.38
2022-10-28T19:49:13.750Z,99315.34
2022-10-28T19:51:43.264Z,99313.69
2022-10-28T19:54:15.177Z,99308.44
2022-10-28T19:56:48.011Z,99306.44
2022-10-28T19:59:18.663Z,99311.97
2022-10-28T20:01:49.176Z,99300.66
2022-10-28T20:04:18.572Z,99299.09
2022-10-28T20:06:48.468Z,99297.56
2022-10-28T20:09:17.735Z,99301.19
2022-10-28T20:11:46.953Z,99306.44
2022-10-28T20:14:18.909Z,99301.19
2022-10-28T20:16:49.272Z,99298.28
2022-10-28T20:19:18.288Z,99301.47
2022-10-28T20:21:48.689Z,99301.38
2022-10-28T20:24:20.000Z,99301.78
2022-10-28T20:26:49.187Z,99310.16
2022-10-28T20:29:19.878Z,99305.38
2022-10-28T20:31:49.148Z,99304.91
2022-10-28T20:34:18.207Z,99305.25
2022-10-28T20:36:48.510Z,99317.31
2022-10-28T20:39:20.758Z,99306.78
2022-10-28T20:41:52.233Z,99304.41
2022-10-28T20:44:22.759Z,99308.38
2022-10-28T20:46:51.800Z,99306.63
2022-10-28T20:49:20.990Z,99308.19
2022-10-28T20:51:50.802Z,99312.31
2022-10-28T20:54:20.001Z,99306.75
2022-10-28T20:56:49.069Z,99308.44
2022-10-28T20:59:18.125Z,99318.59
2022-10-28T21:01:51.859Z,99319.00
2022-10-28T21:04:20.994Z,99316.50
2022-10-28T21:06:50.090Z,99318.50
2022-10-28T21:09:19.214Z,99315.16
2022-10-28T21:11:48.345Z,99311.50
2022-10-28T21:14:17.691Z,99311.41
2022-10-28T21:16:50.643Z,99304.09
2022-10-28T21:19:19.765Z,99305.72
2022-10-28T21:21:48.942Z,99298.13
2022-10-28T21:24:18.065Z,99294.50
2022-10-28T21:26:48.438Z,99300.50
2022-10-28T21:29:20.975Z,99297.63
2022-10-28T21:31:51.394Z,99304.91
2022-10-28T21:34:20.520Z,99298.50
2022-10-28T21:36:49.502Z,99298.91
2022-10-28T21:39:18.573Z,99298.50
2022-10-28T21:41:50.287Z,99296.91
2022-10-28T21:44:19.585Z,99295.22
2022-10-28T21:46:50.955Z,99294.25
2022-10-28T21:49:19.997Z,99290.97
2022-10-28T21:51:49.133Z,99298.91
2022-10-28T21:54:18.831Z,99299.66
2022-10-28T21:56:50.242Z,99290.88
2022-10-28T21:59:19.386Z,99294.88
2022-10-28T22:01:48.598Z,99279.28
2022-10-28T22:04:19.238Z,99270.88
2022-10-28T22:09:22.495Z,99277.91
2022-10-28T22:11:51.511Z,99266.25
2022-10-28T22:14:21.422Z,99272.03
2022-10-28T22:16:50.571Z,99279.66
2022-10-28T22:19:20.986Z,99281.22
2022-10-28T22:21:50.128Z,99281.22
2022-10-28T22:24:19.176Z,99274.44
2022-10-28T22:26:48.345Z,99272.81
2022-10-28T22:29:17.407Z,99282.31
2022-10-28T22:31:47.134Z,99291.63
2022-10-28T22:34:16.166Z,99272.59
2022-10-28T22:36:47.805Z,99283.16
2022-10-28T22:39:16.842Z,99280.84
2022-10-28T22:41:45.944Z,99278.47
2022-10-28T22:44:14.959Z,99280.94
2022-10-28T22:46:43.984Z,99285.03
2022-10-28T22:49:13.071Z,99278.28
2022-10-28T22:51:42.123Z,99273.91
2022-10-28T22:54:12.605Z,99282.78
2022-10-28T22:56:45.652Z,99280.44
2022-10-28T22:59:14.745Z,99276.09
2022-10-28T23:01:43.955Z,99274.50
2022-10-28T23:04:13.559Z,99279.78
2022-10-28T23:06:42.574Z,99272.53
2022-10-28T23:09:15.388Z,99274.16
2022-10-28T23:11:44.549Z,99273.38
2022-10-28T23:14:13.607Z,99278.25
2022-10-28T23:16:42.667Z,99274.25
2022-10-28T23:19:11.660Z,99276.69
2022-10-28T23:21:40.706Z,99275.09
2022-10-28T23:27:14.058Z,99277.53
2022-10-28T23:29:43.230Z,99271.88
2022-10-28T23:32:12.243Z,99274.69
2022-10-28T23:34:41.379Z,99271.88
2022-10-28T23:37:10.500Z,99274.72
2022-10-28T23:39:39.522Z,99271.91
2022-10-28T23:42:08.526Z,99268.72
2022-10-28T23:44:39.150Z,99267.13
2022-10-28T23:47:08.335Z,99268.75
2022-10-28T23:49:37.374Z,99271.16
2022-10-28T23:52:06.548Z,99263.94
2022-10-28T23:54:35.595Z,99263.53
2022-10-28T23:57:05.454Z,99263.13
2022-10-28T23:59:34.653Z,99255.09
